NCAR-RAP Real-Time Weather Data

Output produced by METARs form (21 April 2018  09:45 UTC)
found at http://weather.rap.ucar.edu/surface/
 
Conditions at: KGIF observed 21 April 2018  09:33 UTC
Temperature: 18.9°C (66°F)
Dewpoint: 17.8°C (64°F) [RH = 93%]
Pressure (altimeter): 30.13 inches Hg (1020.4 mb)
Winds: from the NE (40 degrees) at 6 MPH (5 knots; 2.6 m/s)
Visibility: 8 miles (13 km)
Ceiling: 2400 feet AGL
Clouds: broken clouds at 2400 feet AGL
Present Weather: automated observation with no human augmentation;
there may or may not be significant weather present at this time
KGIF 210933Z AUTO 04005KT 8SM BKN024 19/18 A3013 RMK AO2 T01890178

Conditions at: KGIF observed 21 April 2018  08:53 UTC
Temperature: 18.9°C (66°F)
Dewpoint: 17.8°C (64°F) [RH = 93%]
Pressure (altimeter): 30.13 inches Hg (1020.4 mb)
[Sea-level pressure: 1020.0 mb]
Winds: from the NNE (30 degrees) at 6 MPH (5 knots; 2.6 m/s)
Visibility: 8 miles (13 km)
Ceiling: at least 12,000 feet AGL
Clouds: few clouds at 2600 feet AGL
Present Weather: automated observation with no human augmentation;
there may or may not be significant weather present at this time
KGIF 210853Z AUTO 03005KT 8SM FEW026 19/18 A3013 RMK AO2 SLP200 T01890178 56008

Conditions at: KGIF observed 21 April 2018  07:53 UTC
Temperature: 18.9°C (66°F)
Dewpoint: 17.2°C (63°F) [RH = 90%]
Pressure (altimeter): 30.13 inches Hg (1020.4 mb)
[Sea-level pressure: 1020.1 mb]
Winds: from the NNE (30 degrees) at 7 MPH (6 knots; 3.1 m/s)
Visibility: 8 miles (13 km)
Ceiling: at least 12,000 feet AGL
Clouds: few clouds at 6000 feet AGL
Present Weather: automated observation with no human augmentation;
there may or may not be significant weather present at this time
KGIF 210753Z AUTO 03006KT 8SM FEW060 19/17 A3013 RMK AO2 SLP201 T01890172

Conditions at: KGIF observed 21 April 2018  07:38 UTC
Temperature: 18.9°C (66°F)
Dewpoint: 17.2°C (63°F) [RH = 90%]
Pressure (altimeter): 30.13 inches Hg (1020.4 mb)
Winds: from the NNE (30 degrees) at 7 MPH (6 knots; 3.1 m/s)
Visibility: 8 miles (13 km)
Ceiling: 6000 feet AGL
Clouds: scattered clouds at 1000 feet AGL
broken clouds at 6000 feet AGL
Present Weather: automated observation with no human augmentation;
there may or may not be significant weather present at this time
KGIF 210738Z AUTO 03006KT 8SM SCT010 BKN060 19/17 A3013 RMK AO2 T01890172

Conditions at: KGIF observed 21 April 2018  07:09 UTC
Temperature: 18.3°C (65°F)
Dewpoint: 17.2°C (63°F) [RH = 93%]
Pressure (altimeter): 30.13 inches Hg (1020.4 mb)
Winds: from the NNE (20 degrees) at 8 MPH (7 knots; 3.6 m/s)
Visibility: 8 miles (13 km)
Ceiling: 1300 feet AGL
Clouds: few clouds at 800 feet AGL
broken clouds at 1300 feet AGL
overcast cloud deck at 6000 feet AGL
Present Weather: automated observation with no human augmentation;
there may or may not be significant weather present at this time
KGIF 210709Z AUTO 02007KT 8SM FEW008 BKN013 OVC060 18/17 A3013 RMK AO2 T01830172

Conditions at: KGIF observed 21 April 2018  06:59 UTC
Temperature: 18.9°C (66°F)
Dewpoint: 17.2°C (63°F) [RH = 90%]
Pressure (altimeter): 30.14 inches Hg (1020.7 mb)
Winds: from the NNE (20 degrees) at 6 MPH (5 knots; 2.6 m/s)
Visibility: 8 miles (13 km)
Ceiling: 2800 feet AGL
Clouds: few clouds at 800 feet AGL
broken clouds at 2800 feet AGL
overcast cloud deck at 6000 feet AGL
Present Weather: automated observation with no human augmentation;
there may or may not be significant weather present at this time
KGIF 210659Z AUTO 02005KT 8SM FEW008 BKN028 OVC060 19/17 A3014 RMK AO2 T01890172

Conditions at: KGIF observed 21 April 2018  06:53 UTC
Temperature: 18.9°C (66°F)
Dewpoint: 17.2°C (63°F) [RH = 90%]
Pressure (altimeter): 30.14 inches Hg (1020.7 mb)
[Sea-level pressure: 1020.5 mb]
Winds: from the NNE (20 degrees) at 7 MPH (6 knots; 3.1 m/s)
Visibility: 8 miles (13 km)
Ceiling: 6000 feet AGL
Clouds: scattered clouds at 1100 feet AGL
overcast cloud deck at 6000 feet AGL
Present Weather: automated observation with no human augmentation;
there may or may not be significant weather present at this time
KGIF 210653Z AUTO 02006KT 8SM SCT011 OVC060 19/17 A3014 RMK AO2 SLP205 T01890172

Conditions at: KGIF observed 21 April 2018  05:53 UTC
Temperature: 18.3°C (65°F)
Dewpoint: 17.8°C (64°F) [RH = 97%]
Pressure (altimeter): 30.16 inches Hg (1021.4 mb)
[Sea-level pressure: 1020.9 mb]
Winds: from the NNE (20 degrees) at 7 MPH (6 knots; 3.1 m/s)
Visibility: 8 miles (13 km)
Ceiling: 1200 feet AGL
Clouds: broken clouds at 1200 feet AGL
overcast cloud deck at 6000 feet AGL
Present Weather: automated observation with no human augmentation;
there may or may not be significant weather present at this time
KGIF 210553Z AUTO 02006KT 8SM BKN012 OVC060 18/18 A3016 RMK AO2 SLP209 T01830178 10244 20183 58003

Conditions at: KGIF observed 21 April 2018  04:53 UTC
Temperature: 19.4°C (67°F)
Dewpoint: 17.2°C (63°F) [RH = 87%]
Pressure (altimeter): 30.17 inches Hg (1021.8 mb)
[Sea-level pressure: 1021.4 mb]
Winds: from the NE (40 degrees) at 8 MPH (7 knots; 3.6 m/s)
Visibility: 8 miles (13 km)
Ceiling: 1200 feet AGL
Clouds: broken clouds at 1200 feet AGL
overcast cloud deck at 6000 feet AGL
Present Weather: automated observation with no human augmentation;
there may or may not be significant weather present at this time
KGIF 210453Z AUTO 04007KT 8SM BKN012 OVC060 19/17 A3017 RMK AO2 SLP214 T01940172 403060178

Conditions at: KGIF observed 21 April 2018  03:53 UTC
Temperature: 20.0°C (68°F)
Dewpoint: 17.8°C (64°F) [RH = 87%]
Pressure (altimeter): 30.17 inches Hg (1021.8 mb)
[Sea-level pressure: 1021.3 mb]
Winds: from the NE (40 degrees) at 12 MPH (10 knots; 5.2 m/s)
Visibility: 9 miles (14 km)
Ceiling: 1200 feet AGL
Clouds: overcast cloud deck at 1200 feet AGL
Present Weather: automated observation with no human augmentation;
there may or may not be significant weather present at this time
KGIF 210353Z AUTO 04010KT 9SM OVC012 20/18 A3017 RMK AO2 SLP213 T02000178

Conditions at: KGIF observed 21 April 2018  03:13 UTC
Temperature: 20.0°C (68°F)
Dewpoint: 17.2°C (63°F) [RH = 84%]
Pressure (altimeter): 30.17 inches Hg (1021.8 mb)
Winds: from the NE (40 degrees) at 12 MPH (10 knots; 5.2 m/s)
Visibility: 9 miles (14 km)
Ceiling: 1400 feet AGL
Clouds: broken clouds at 1400 feet AGL
Present Weather: automated observation with no human augmentation;
there may or may not be significant weather present at this time
KGIF 210313Z AUTO 04010KT 9SM BKN014 20/17 A3017 RMK AO2 T02000172

Conditions at: KGIF observed 21 April 2018  02:53 UTC
Temperature: 20.0°C (68°F)
Dewpoint: 17.2°C (63°F) [RH = 84%]
Pressure (altimeter): 30.16 inches Hg (1021.4 mb)
[Sea-level pressure: 1021.2 mb]
Winds: from the NNE (30 degrees) at 10 MPH (9 knots; 4.7 m/s)
Visibility: 9 miles (14 km)
Ceiling: at least 12,000 feet AGL
Clouds: sky clear below 12,000 feet AGL
Present Weather: automated observation with no human augmentation;
there may or may not be significant weather present at this time
KGIF 210253Z AUTO 03009KT 9SM CLR 20/17 A3016 RMK AO2 SLP212 T02000172 51021

Conditions at: KGIF observed 21 April 2018  01:53 UTC
Temperature: 21.1°C (70°F)
Dewpoint: 17.8°C (64°F) [RH = 81%]
Pressure (altimeter): 30.16 inches Hg (1021.4 mb)
[Sea-level pressure: 1021.2 mb]
Winds: from the NNE (30 degrees) at 10 MPH (9 knots; 4.7 m/s)
Visibility: 10 or more miles (16+ km)
Ceiling: at least 12,000 feet AGL
Clouds: few clouds at 5000 feet AGL
Present Weather: automated observation with no human augmentation;
there may or may not be significant weather present at this time
KGIF 210153Z AUTO 03009KT 10SM FEW050 21/18 A3016 RMK AO2 SLP212 T02110178

Conditions at: KGIF observed 21 April 2018  00:53 UTC
Temperature: 22.8°C (73°F)
Dewpoint: 18.3°C (65°F) [RH = 76%]
Pressure (altimeter): 30.14 inches Hg (1020.7 mb)
[Sea-level pressure: 1020.2 mb]
Winds: from the NNE (30 degrees) at 15 MPH (13 knots; 6.8 m/s)
Visibility: 10 or more miles (16+ km)
Ceiling: 3900 feet AGL
Clouds: overcast cloud deck at 3900 feet AGL
Present Weather: automated observation with no human augmentation;
there may or may not be significant weather present at this time
KGIF 210053Z AUTO 03013KT 10SM OVC039 23/18 A3014 RMK AO2 SLP202 T02280183

Conditions at: KGIF observed 20 April 2018  23:53 UTC
Temperature: 24.4°C (76°F)
Dewpoint: 18.3°C (65°F) [RH = 69%]
Pressure (altimeter): 30.10 inches Hg (1019.4 mb)
[Sea-level pressure: 1019.2 mb]
Winds: from the NNE (30 degrees) at 12 MPH (10 knots; 5.2 m/s)
Visibility: 10 or more miles (16+ km)
Ceiling: at least 12,000 feet AGL
Clouds: few clouds at 4300 feet AGL
Present Weather: automated observation with no human augmentation;
there may or may not be significant weather present at this time
KGIF 202353Z AUTO 03010KT 10SM FEW043 24/18 A3010 RMK AO2 SLP192 T02440183 10306 20244 53006

Conditions at: KGIF observed 20 April 2018  22:53 UTC
Temperature: 26.7°C (80°F)
Dewpoint: 18.9°C (66°F) [RH = 62%]
Pressure (altimeter): 30.10 inches Hg (1019.4 mb)
[Sea-level pressure: 1018.9 mb]
Winds: from the N (10 degrees) at 14 MPH (12 knots; 6.2 m/s)
Visibility: 10 or more miles (16+ km)
Ceiling: at least 12,000 feet AGL
Clouds: sky clear below 12,000 feet AGL
Present Weather: automated observation with no human augmentation;
there may or may not be significant weather present at this time
KGIF 202253Z AUTO 01012KT 10SM CLR 27/19 A3010 RMK AO2 SLP189 T02670189

Conditions at: KGIF observed 20 April 2018  21:53 UTC
Temperature: 28.3°C (83°F)
Dewpoint: 18.3°C (65°F) [RH = 55%]
Pressure (altimeter): 30.09 inches Hg (1019.0 mb)
[Sea-level pressure: 1018.6 mb]
Winds: from the N (360 degrees) at 12 MPH (10 knots; 5.2 m/s)
Visibility: 10 or more miles (16+ km)
Ceiling: at least 12,000 feet AGL
Clouds: sky clear below 12,000 feet AGL
Present Weather: automated observation with no human augmentation;
there may or may not be significant weather present at this time
KGIF 202153Z AUTO 36010KT 10SM CLR 28/18 A3009 RMK AO2 SLP186 T02830183

Conditions at: KGIF observed 20 April 2018  20:53 UTC
Temperature: 30.0°C (86°F)
Dewpoint: 14.4°C (58°F) [RH = 39%]
Pressure (altimeter): 30.08 inches Hg (1018.7 mb)
[Sea-level pressure: 1018.5 mb]
Winds: calm
Visibility: 10 or more miles (16+ km)
Ceiling: at least 12,000 feet AGL
Clouds: sky clear below 12,000 feet AGL
Present Weather: automated observation with no human augmentation;
there may or may not be significant weather present at this time
KGIF 202053Z AUTO 00000KT 10SM CLR 30/14 A3008 RMK AO2 SLP185 T03000144 58018

Conditions at: KGIF observed 20 April 2018  19:53 UTC
Temperature: 28.9°C (84°F)
Dewpoint: 14.4°C (58°F) [RH = 41%]
Pressure (altimeter): 30.10 inches Hg (1019.4 mb)
[Sea-level pressure: 1019.1 mb]
Winds: from the N (350 degrees) at 6 MPH (5 knots; 2.6 m/s)
Visibility: 10 or more miles (16+ km)
Ceiling: at least 12,000 feet AGL
Clouds: few clouds at 5500 feet AGL
Present Weather: automated observation with no human augmentation;
there may or may not be significant weather present at this time
KGIF 201953Z AUTO 35005KT 10SM FEW055 29/14 A3010 RMK AO2 SLP191 T02890144

Conditions at: KGIF observed 20 April 2018  18:53 UTC
Temperature: 29.4°C (85°F)
Dewpoint: 15.0°C (59°F) [RH = 42%]
Pressure (altimeter): 30.13 inches Hg (1020.4 mb)
[Sea-level pressure: 1020.0 mb]
Winds: from the NNE (30 degrees) at 6 MPH (5 knots; 2.6 m/s)
Visibility: 10 or more miles (16+ km)
Ceiling: at least 12,000 feet AGL
Clouds: few clouds at 5000 feet AGL
Present Weather: automated observation with no human augmentation;
there may or may not be significant weather present at this time
KGIF 201853Z AUTO 03005KT 10SM FEW050 29/15 A3013 RMK AO2 SLP200 T02940150

Conditions at: KGIF observed 20 April 2018  17:53 UTC
Temperature: 27.8°C (82°F)
Dewpoint: 15.0°C (59°F) [RH = 46%]
Pressure (altimeter): 30.14 inches Hg (1020.7 mb)
[Sea-level pressure: 1020.3 mb]
Winds: from the N (350 degrees) at 6 MPH (5 knots; 2.6 m/s)
Visibility: 10 or more miles (16+ km)
Ceiling: at least 12,000 feet AGL
Clouds: few clouds at 4500 feet AGL
Present Weather: automated observation with no human augmentation;
there may or may not be significant weather present at this time
KGIF 201753Z AUTO 35005KT 10SM FEW045 28/15 A3014 RMK AO2 SLP203 T02780150 10289 20189 58006

Conditions at: KGIF observed 20 April 2018  16:53 UTC
Temperature: 26.7°C (80°F)
Dewpoint: 15.6°C (60°F) [RH = 51%]
Pressure (altimeter): 30.15 inches Hg (1021.1 mb)
[Sea-level pressure: 1020.7 mb]
Winds: calm
Visibility: 10 or more miles (16+ km)
Ceiling: at least 12,000 feet AGL
Clouds: sky clear below 12,000 feet AGL
Present Weather: automated observation with no human augmentation;
there may or may not be significant weather present at this time
KGIF 201653Z AUTO 00000KT 10SM CLR 27/16 A3015 RMK AO2 SLP207 T02670156

Conditions at: KGIF observed 20 April 2018  15:53 UTC
Temperature: 23.9°C (75°F)
Dewpoint: 16.1°C (61°F) [RH = 62%]
Pressure (altimeter): 30.16 inches Hg (1021.4 mb)
[Sea-level pressure: 1021.0 mb]
Winds: from the NW (310 degrees) at 3 MPH (3 knots; 1.6 m/s)
Visibility: 10 or more miles (16+ km)
Ceiling: at least 12,000 feet AGL
Clouds: sky clear below 12,000 feet AGL
Present Weather: automated observation with no human augmentation;
there may or may not be significant weather present at this time
KGIF 201553Z AUTO 31003KT 10SM CLR 24/16 A3016 RMK AO2 SLP210 T02390161

Conditions at: KGIF observed 20 April 2018  14:53 UTC
Temperature: 23.9°C (75°F)
Dewpoint: 17.8°C (64°F) [RH = 69%]
Pressure (altimeter): 30.16 inches Hg (1021.4 mb)
[Sea-level pressure: 1020.9 mb]
Winds: from the N (10 degrees) at 7 MPH (6 knots; 3.1 m/s)
Visibility: 10 or more miles (16+ km)
Ceiling: at least 12,000 feet AGL
Clouds: sky clear below 12,000 feet AGL
Present Weather: automated observation with no human augmentation;
there may or may not be significant weather present at this time
KGIF 201453Z AUTO 01006KT 10SM CLR 24/18 A3016 RMK AO2 SLP209 T02390178 51009

Conditions at: KGIF observed 20 April 2018  14:40 UTC
Temperature: 23.9°C (75°F)
Dewpoint: 18.3°C (65°F) [RH = 71%]
Pressure (altimeter): 30.15 inches Hg (1021.1 mb)
Winds: from the NNE (20 degrees) at 9 MPH (8 knots; 4.2 m/s)
Visibility: 10 or more miles (16+ km)
Ceiling: at least 12,000 feet AGL
Clouds: few clouds at 1400 feet AGL
scattered clouds at 2600 feet AGL
scattered clouds at 3100 feet AGL
Present Weather: automated observation with no human augmentation;
there may or may not be significant weather present at this time
KGIF 201440Z AUTO 02008KT 10SM FEW014 SCT026 SCT031 24/18 A3015 RMK AO2 T02390183

Conditions at: KGIF observed 20 April 2018  14:16 UTC
Temperature: 21.7°C (71°F)
Dewpoint: 18.3°C (65°F) [RH = 81%]
Pressure (altimeter): 30.15 inches Hg (1021.1 mb)
Winds: from the NNE (20 degrees) at 9 MPH (8 knots; 4.2 m/s)
Visibility: 10 or more miles (16+ km)
Ceiling: 1900 feet AGL
Clouds: scattered clouds at 1300 feet AGL
broken clouds at 1900 feet AGL
broken clouds at 2600 feet AGL
Present Weather: automated observation with no human augmentation;
there may or may not be significant weather present at this time
KGIF 201416Z AUTO 02008KT 10SM SCT013 BKN019 BKN026 22/18 A3015 RMK AO2 T02170183

Conditions at: KGIF observed 20 April 2018  13:53 UTC
Temperature: 22.2°C (72°F)
Dewpoint: 18.9°C (66°F) [RH = 82%]
Pressure (altimeter): 30.14 inches Hg (1020.7 mb)
[Sea-level pressure: 1020.5 mb]
Winds: variable direction winds at 3 MPH (3 knots; 1.6 m/s)
Visibility: 9 miles (14 km)
Ceiling: at least 12,000 feet AGL
Clouds: few clouds at 1300 feet AGL
few clouds at 1900 feet AGL
Present Weather: automated observation with no human augmentation;
there may or may not be significant weather present at this time
KGIF 201353Z AUTO VRB03KT 9SM FEW013 FEW019 22/19 A3014 RMK AO2 SLP205 T02220189

Conditions at: KGIF observed 20 April 2018  13:28 UTC
Temperature: 21.1°C (70°F)
Dewpoint: 18.3°C (65°F) [RH = 84%]
Pressure (altimeter): 30.14 inches Hg (1020.7 mb)
Winds: from the SW (230 degrees) at 3 MPH (3 knots; 1.6 m/s)
Visibility: 10 or more miles (16+ km)
Ceiling: at least 12,000 feet AGL
Clouds: few clouds at 1400 feet AGL
scattered clouds at 2100 feet AGL
Present Weather: automated observation with no human augmentation;
there may or may not be significant weather present at this time
KGIF 201328Z AUTO 23003KT 10SM FEW014 SCT021 21/18 A3014 RMK AO2 T02110183

Conditions at: KGIF observed 20 April 2018  13:18 UTC
Temperature: 21.1°C (70°F)
Dewpoint: 18.3°C (65°F) [RH = 84%]
Pressure (altimeter): 30.14 inches Hg (1020.7 mb)
Winds: from the SW (230 degrees) at 5 MPH (4 knots; 2.1 m/s)
Visibility: 10 or more miles (16+ km)
Ceiling: 2100 feet AGL
Clouds: scattered clouds at 1400 feet AGL
broken clouds at 2100 feet AGL
Present Weather: automated observation with no human augmentation;
there may or may not be significant weather present at this time
KGIF 201318Z AUTO 23004KT 10SM SCT014 BKN021 21/18 A3014 RMK AO2 T02110183

Conditions at: KGIF observed 20 April 2018  12:53 UTC
Temperature: 20.0°C (68°F)
Dewpoint: 18.3°C (65°F) [RH = 90%]
Pressure (altimeter): 30.14 inches Hg (1020.7 mb)
[Sea-level pressure: 1020.5 mb]
Winds: from the SW (220 degrees) at 5 MPH (4 knots; 2.1 m/s)
Visibility: 10 or more miles (16+ km)
Ceiling: at least 12,000 feet AGL
Clouds: few clouds at 2700 feet AGL
Present Weather: automated observation with no human augmentation;
there may or may not be significant weather present at this time
KGIF 201253Z AUTO 22004KT 10SM FEW027 20/18 A3014 RMK AO2 SLP205 T02000183

Conditions at: KGIF observed 20 April 2018  11:53 UTC
Temperature: 18.9°C (66°F)
Dewpoint: 17.8°C (64°F) [RH = 93%]
Pressure (altimeter): 30.13 inches Hg (1020.4 mb)
[Sea-level pressure: 1020.0 mb]
Winds: calm
Visibility: 10 or more miles (16+ km)
Ceiling: 2000 feet AGL
Clouds: broken clouds at 2000 feet AGL
Present Weather: automated observation with no human augmentation;
there may or may not be significant weather present at this time
KGIF 201153Z AUTO 00000KT 10SM BKN020 19/18 A3013 RMK AO2 SLP200 T01890178 10189 20178 53017

Conditions at: KGIF observed 20 April 2018  11:10 UTC
Temperature: 17.8°C (64°F)
Dewpoint: 17.2°C (63°F) [RH = 96%]
Pressure (altimeter): 30.11 inches Hg (1019.7 mb)
Winds: calm
Visibility: 10 or more miles (16+ km)
Ceiling: 1800 feet AGL
Clouds: broken clouds at 1800 feet AGL
Present Weather: automated observation with no human augmentation;
there may or may not be significant weather present at this time
KGIF 201110Z AUTO 00000KT 10SM BKN018 18/17 A3011 RMK AO2 T01780172

Conditions at: KGIF observed 20 April 2018  10:53 UTC
Temperature: 17.8°C (64°F)
Dewpoint: 17.2°C (63°F) [RH = 96%]
Pressure (altimeter): 30.10 inches Hg (1019.4 mb)
[Sea-level pressure: 1019.1 mb]
Winds: calm
Visibility: 10 or more miles (16+ km)
Ceiling: at least 12,000 feet AGL
Clouds: sky clear below 12,000 feet AGL
Present Weather: automated observation with no human augmentation;
there may or may not be significant weather present at this time
KGIF 201053Z AUTO 00000KT 10SM CLR 18/17 A3010 RMK AO2 SLP191 T01780172

Conditions at: KGIF observed 20 April 2018  09:53 UTC
Temperature: 17.8°C (64°F)
Dewpoint: 17.2°C (63°F) [RH = 96%]
Pressure (altimeter): 30.09 inches Hg (1019.0 mb)
[Sea-level pressure: 1018.7 mb]
Winds: from the NW (310 degrees) at 3 MPH (3 knots; 1.6 m/s)
Visibility: 10 or more miles (16+ km)
Ceiling: at least 12,000 feet AGL
Clouds: sky clear below 12,000 feet AGL
Present Weather: automated observation with no human augmentation;
there may or may not be significant weather present at this time
KGIF 200953Z AUTO 31003KT 10SM CLR 18/17 A3009 RMK AO2 SLP187 T01780172